Time;durP1;ratioP1;P1;durP2;ratioP2;P2;SDS_P1;SDS_P2;PMS_P1;PMS_P2;Temp;Humidity;BMP_temperature;BMP_pressure;BME280_temperature;BME280_humidity;BME280_pressure;Samples;Min_cycle;Max_cycle;Signal;HPM_P1;HPM_P2
2023/04/08 00:01:48;;;;;;;24.55;11.80;;;;;;;9.77;74.23;102149.34;5073995;28;20033;-64
2023/04/08 00:04:13;;;;;;;28.15;12.70;;;;;;;9.78;73.53;102151.91;5072868;28;20032;-64
2023/04/08 00:06:39;;;;;;;29.10;12.75;;;;;;;9.80;73.93;102148.94;5078560;28;20382;-64
2023/04/08 00:09:04;;;;;;;24.92;12.98;;;;;;;9.77;73.92;102150.22;5090063;28;20085;-63
2023/04/08 00:11:29;;;;;;;23.65;12.48;;;;;;;9.77;74.16;102154.91;5089287;28;20065;-63
2023/04/08 00:13:55;;;;;;;31.48;14.13;;;;;;;9.77;74.05;102150.22;5081234;28;20040;-64
2023/04/08 00:16:21;;;;;;;27.13;14.30;;;;;;;9.75;74.04;102154.28;5069759;28;20036;-64
2023/04/08 00:18:48;;;;;;;27.52;13.15;;;;;;;9.76;74.43;102150.44;5088529;28;20035;-64
2023/04/08 00:21:15;;;;;;;26.23;13.57;;;;;;;9.78;74.45;102142.75;5088144;28;20031;-63
2023/04/08 00:23:40;;;;;;;25.13;14.10;;;;;;;9.75;74.15;102146.81;5069507;28;20032;-63
2023/04/08 00:26:05;;;;;;;25.02;13.15;;;;;;;9.78;74.10;102142.75;5088889;28;20097;-63
2023/04/08 00:28:31;;;;;;;21.63;12.95;;;;;;;9.81;74.27;102140.38;5090076;28;20070;-63
2023/04/08 00:30:57;;;;;;;21.05;14.50;;;;;;;9.83;74.10;102156.81;5090397;28;20122;-63
2023/04/08 00:33:23;;;;;;;27.42;13.98;;;;;;;9.81;74.24;102147.84;5082421;28;20109;-63
2023/04/08 00:35:49;;;;;;;22.75;14.32;;;;;;;9.80;74.30;102146.16;5089346;28;20104;-63
2023/04/08 00:38:15;;;;;;;23.40;13.82;;;;;;;9.81;74.08;102142.31;5079631;28;20059;-63
2023/04/08 00:40:40;;;;;;;26.70;13.90;;;;;;;9.81;74.15;102145.09;5089891;28;20053;-63
2023/04/08 00:43:05;;;;;;;29.23;14.88;;;;;;;9.80;74.30;102149.78;5089125;28;20044;-63
2023/04/08 00:45:32;;;;;;;24.60;14.68;;;;;;;9.80;74.64;102151.72;5089184;28;20051;-63
2023/04/08 00:47:57;;;;;;;27.70;14.98;;;;;;;9.78;74.41;102157.44;5084496;28;20125;-63
2023/04/08 00:50:23;;;;;;;27.75;15.35;;;;;;;9.79;74.49;102150.84;5087622;28;20760;-63
2023/04/08 00:52:48;;;;;;;28.35;16.13;;;;;;;9.79;74.49;102148.09;5074142;28;20024;-63
2023/04/08 00:55:13;;;;;;;33.95;17.38;;;;;;;9.81;74.44;102159.78;5070352;28;20029;-63
2023/04/08 00:57:39;;;;;;;35.38;18.25;;;;;;;9.82;74.30;102157.88;5087510;28;20052;-63
2023/04/08 01:00:05;;;;;;;31.65;17.58;;;;;;;9.82;74.55;102155.97;5090837;28;20471;-63
2023/04/08 01:02:49;;;;;;;30.58;17.00;;;;;;;9.82;74.13;102157.88;5089765;28;20089;-63
2023/04/08 01:05:25;;;;;;;38.38;19.20;;;;;;;9.79;74.72;102169.41;5089396;28;20035;-63
2023/04/08 01:07:50;;;;;;;35.55;19.02;;;;;;;9.78;74.68;102171.31;5071024;28;20051;-63
2023/04/08 01:10:21;;;;;;;33.88;17.98;;;;;;;9.78;74.64;102164.91;5071312;28;20453;-63
2023/04/08 01:13:02;;;;;;;32.45;18.10;;;;;;;9.77;74.81;102158.53;5070208;28;20040;-64
2023/04/08 01:15:29;;;;;;;30.73;20.23;;;;;;;9.78;74.61;102164.91;5079023;28;20027;-63
2023/04/08 01:17:57;;;;;;;31.65;19.10;;;;;;;9.75;75.01;102157.91;5081488;28;20348;-63
2023/04/08 01:20:24;;;;;;;37.70;20.23;;;;;;;9.74;75.02;102158.94;5070080;28;20021;-63
2023/04/08 01:23:15;;;;;;;35.53;20.25;;;;;;;9.76;75.05;102167.91;5068773;28;20536;-63
2023/04/08 01:25:46;;;;;;;36.50;21.38;;;;;;;9.74;75.11;102164.50;5078284;28;20054;-63
2023/04/08 01:28:15;;;;;;;34.53;20.40;;;;;;;9.73;74.88;102161.94;5092516;28;20028;-63
2023/04/08 01:30:42;;;;;;;37.92;21.00;;;;;;;9.74;74.85;102174.75;5093365;28;20391;-63
2023/04/08 01:33:10;;;;;;;32.45;20.27;;;;;;;9.73;75.17;102167.50;5092519;28;20447;-63
2023/04/08 01:35:35;;;;;;;36.90;21.48;;;;;;;9.77;74.88;102166.00;5080657;28;20035;-63
2023/04/08 01:38:02;;;;;;;35.72;21.50;;;;;;;9.77;74.99;102163.22;5080012;28;20498;-63
2023/04/08 01:40:28;;;;;;;45.67;22.35;;;;;;;9.75;75.05;102166.22;5087581;28;20024;-64
2023/04/08 01:42:56;;;;;;;45.20;22.38;;;;;;;9.76;75.24;102178.16;5085598;28;20027;-64
2023/04/08 01:45:22;;;;;;;40.35;22.27;;;;;;;9.74;75.51;102174.75;5089897;28;20028;-64
2023/04/08 01:47:48;;;;;;;37.95;22.73;;;;;;;9.70;75.41;102179.00;5089762;28;20078;-63
2023/04/08 01:50:15;;;;;;;40.58;23.65;;;;;;;9.68;75.38;102179.25;5081196;28;20195;-63
2023/04/08 01:52:46;;;;;;;35.08;22.83;;;;;;;9.72;75.44;102171.34;5083650;28;20070;-63
2023/04/08 01:55:12;;;;;;;44.15;24.40;;;;;;;9.74;75.86;102183.06;5083244;28;20024;-63
2023/04/08 01:57:40;;;;;;;40.33;23.73;;;;;;;9.74;75.99;102177.50;5072589;28;20051;-63
2023/04/08 02:00:11;;;;;;;42.10;23.88;;;;;;;9.73;76.44;102168.34;5079310;28;20101;-63
2023/04/08 02:02:37;;;;;;;39.83;24.10;;;;;;;9.74;76.45;102175.59;5072346;28;20517;-64
2023/04/08 02:05:03;;;;;;;41.13;25.15;;;;;;;9.74;76.68;102177.50;5079393;28;20027;-62
2023/04/08 02:07:28;;;;;;;37.88;24.90;;;;;;;9.74;76.82;102169.19;5078536;28;20032;-63
2023/04/08 02:09:55;;;;;;;44.47;25.48;;;;;;;9.74;76.83;102178.34;5087435;28;20027;-63
2023/04/08 02:12:20;;;;;;;42.20;25.30;;;;;;;9.72;76.96;102177.75;5090899;28;20040;-63
2023/04/08 02:14:46;;;;;;;42.05;25.67;;;;;;;9.73;77.07;102173.88;5090122;28;20079;-63
2023/04/08 02:17:16;;;;;;;42.85;25.55;;;;;;;9.72;77.47;102174.13;5081958;28;20514;-63
2023/04/08 02:20:05;;;;;;;44.17;26.02;;;;;;;9.78;76.99;102174.09;5078321;28;20467;-63
2023/04/08 02:22:37;;;;;;;39.83;26.00;;;;;;;9.72;77.66;102182.44;5075374;28;20127;-63
2023/04/08 02:25:07;;;;;;;43.50;26.90;;;;;;;9.71;77.73;102175.19;5082033;28;20402;-63
2023/04/08 02:27:34;;;;;;;38.35;26.02;;;;;;;9.74;77.70;102169.19;5076970;28;20039;-63
2023/04/08 02:30:03;;;;;;;42.35;26.02;;;;;;;9.74;77.63;102185.81;5072392;28;20124;-63
2023/04/08 02:32:31;;;;;;;38.97;26.17;;;;;;;9.75;77.86;102187.56;5075973;28;20021;-63
2023/04/08 02:34:58;;;;;;;49.97;26.77;;;;;;;9.74;77.72;102183.06;5072134;28;20041;-62
2023/04/08 02:37:24;;;;;;;40.65;26.58;;;;;;;9.73;78.14;102189.69;5085523;28;20036;-63
2023/04/08 02:39:49;;;;;;;42.33;26.13;;;;;;;9.72;77.71;102187.97;5089413;28;20471;-63
2023/04/08 02:42:14;;;;;;;41.40;26.05;;;;;;;9.72;77.69;102179.66;5092004;28;20040;-63
2023/04/08 02:44:40;;;;;;;42.35;26.67;;;;;;;9.70;77.60;102190.09;5089324;28;20027;-63
2023/04/08 02:47:05;;;;;;;41.53;27.27;;;;;;;9.68;78.12;102182.00;5089464;28;20043;-63
2023/04/08 02:49:30;;;;;;;41.05;27.25;;;;;;;9.68;77.95;102193.09;5088665;28;20032;-63
2023/04/08 02:51:55;;;;;;;42.47;27.48;;;;;;;9.70;78.22;102195.66;5076075;28;20035;-63
2023/04/08 02:54:21;;;;;;;42.05;26.63;;;;;;;9.70;78.09;102198.41;5073450;28;20037;-63
2023/04/08 02:56:46;;;;;;;41.95;27.58;;;;;;;9.67;78.16;102194.19;5088207;28;20824;-63
2023/04/08 02:59:11;;;;;;;44.42;28.27;;;;;;;9.68;78.27;102201.41;5092226;28;20040;-63
2023/04/08 03:01:36;;;;;;;43.50;28.67;;;;;;;9.66;78.19;102189.69;5074300;28;20036;-63
2023/04/08 03:04:02;;;;;;;43.60;28.95;;;;;;;9.67;78.47;102196.06;5084319;28;20032;-63
2023/04/08 03:06:27;;;;;;;47.22;29.55;;;;;;;9.67;78.67;102196.06;5075653;28;20036;-63
2023/04/08 03:08:52;;;;;;;42.75;27.58;;;;;;;9.72;78.16;102199.06;5071120;28;20024;-63
2023/04/08 03:11:17;;;;;;;43.50;28.55;;;;;;;9.69;78.13;102199.50;5070813;28;20048;-63
2023/04/08 03:13:43;;;;;;;40.88;28.58;;;;;;;9.69;78.15;102196.72;5070262;28;20065;-63
2023/04/08 03:16:08;;;;;;;47.17;28.30;;;;;;;9.67;78.63;102199.72;5072883;28;20043;-63
2023/04/08 03:18:33;;;;;;;45.47;28.83;;;;;;;9.69;78.11;102200.34;5085246;28;20020;-63
2023/04/08 03:21:00;;;;;;;47.45;28.63;;;;;;;9.67;78.25;102202.50;5090312;28;20034;-63
2023/04/08 03:23:25;;;;;;;48.72;28.80;;;;;;;9.67;78.91;102196.06;5083337;28;20111;-63
2023/04/08 03:25:50;;;;;;;49.15;29.25;;;;;;;9.65;78.25;102201.84;5091494;28;20119;-64
2023/04/08 03:28:16;;;;;;;49.70;31.08;;;;;;;9.65;79.11;102199.06;5078703;28;20025;-63
2023/04/08 03:30:41;;;;;;;45.20;29.67;;;;;;;9.66;78.47;102200.75;5070380;28;20029;-63
2023/04/08 03:33:07;;;;;;;55.63;31.52;;;;;;;9.67;78.45;102196.06;5081170;28;20051;-64
2023/04/08 03:35:33;;;;;;;55.22;30.23;;;;;;;9.67;78.72;102207.16;5077237;28;20031;-63
2023/04/08 03:37:58;;;;;;;53.55;31.27;;;;;;;9.68;78.95;102200.56;5085885;28;20020;-63
2023/04/08 03:40:23;;;;;;;49.90;30.90;;;;;;;9.67;78.63;102199.72;5092100;28;20028;-63
2023/04/08 03:42:49;;;;;;;53.58;30.85;;;;;;;9.67;78.54;102198.84;5090887;28;20028;-63
2023/04/08 03:45:14;;;;;;;51.65;30.90;;;;;;;9.65;78.73;102195.44;5091200;28;20024;-63
2023/04/08 03:47:40;;;;;;;55.28;31.63;;;;;;;9.64;78.54;102199.28;5088133;28;20024;-63
2023/04/08 03:50:05;;;;;;;57.50;31.65;;;;;;;9.64;78.73;102200.16;5068835;28;20032;-63
2023/04/08 03:52:31;;;;;;;56.92;33.22;;;;;;;9.63;78.90;102203.09;5083787;28;20028;-63
2023/04/08 03:54:56;;;;;;;54.63;32.25;;;;;;;9.61;78.83;102202.47;5090863;28;20028;-63
2023/04/08 03:57:21;;;;;;;65.03;34.05;;;;;;;9.61;79.32;102210.81;5090627;28;20035;-63
2023/04/08 03:59:46;;;;;;;58.95;33.53;;;;;;;9.62;78.51;102206.97;5088580;28;20067;-63
2023/04/08 04:02:12;;;;;;;62.15;33.25;;;;;;;9.62;79.35;102209.72;5074885;28;20353;-63
2023/04/08 04:04:37;;;;;;;61.95;35.33;;;;;;;9.62;79.06;102213.34;5080565;28;20513;-63
2023/04/08 04:07:02;;;;;;;64.15;35.95;;;;;;;9.61;79.18;102208.03;5080748;28;20056;-63
2023/04/08 04:09:28;;;;;;;59.60;34.13;;;;;;;9.61;79.15;102211.66;5072206;28;20056;-63
2023/04/08 04:11:53;;;;;;;70.63;36.13;;;;;;;9.63;79.38;102204.00;5081745;28;20044;-63
2023/04/08 04:14:18;;;;;;;71.68;35.28;;;;;;;9.65;79.11;102209.31;5088417;28;20031;-63
2023/04/08 04:16:44;;;;;;;66.80;35.95;;;;;;;9.58;79.54;102215.69;5076348;28;20550;-63
2023/04/08 04:19:09;;;;;;;63.25;35.97;;;;;;;9.62;79.17;102213.34;5086269;28;20085;-63
2023/04/08 04:21:35;;;;;;;73.30;36.70;;;;;;;9.62;79.40;102218.03;5088812;28;20032;-63
2023/04/08 04:24:00;;;;;;;66.55;35.97;;;;;;;9.64;79.60;102224.25;5089068;28;20032;-63
2023/04/08 04:26:25;;;;;;;71.45;37.90;;;;;;;9.63;79.34;102219.75;5077235;28;20025;-63
2023/04/08 04:28:51;;;;;;;68.60;35.33;;;;;;;9.63;79.51;102225.28;5089943;28;20012;-63
2023/04/08 04:31:26;;;;;;;70.32;37.28;;;;;;;9.63;79.80;102225.28;5085014;28;20036;-63
2023/04/08 04:33:51;;;;;;;72.93;36.60;;;;;;;9.62;79.74;102227.22;5079452;28;20032;-63
2023/04/08 04:36:17;;;;;;;71.70;36.58;;;;;;;9.63;79.50;102231.72;5074740;28;20025;-63
2023/04/08 04:38:43;;;;;;;77.43;38.20;;;;;;;9.61;79.77;102230.22;5086052;28;20028;-63
2023/04/08 04:41:08;;;;;;;75.90;37.20;;;;;;;9.63;80.01;102240.03;5087333;28;20055;-63
2023/04/08 04:43:33;;;;;;;78.10;38.03;;;;;;;9.62;79.86;102243.00;5072559;28;20024;-63
2023/04/08 04:45:59;;;;;;;66.80;36.10;;;;;;;9.64;79.54;102241.72;5069355;28;20054;-63
2023/04/08 04:48:25;;;;;;;64.10;36.90;;;;;;;9.59;79.82;102245.16;5072518;28;20031;-63
2023/04/08 04:50:57;;;;;;;65.45;37.22;;;;;;;9.60;80.00;102234.91;5084456;28;20031;-63
2023/04/08 04:53:23;;;;;;;75.53;38.38;;;;;;;9.62;79.83;102254.94;5085349;28;20093;-63
2023/04/08 04:55:49;;;;;;;73.10;38.35;;;;;;;9.65;79.91;102250.88;5088191;28;20028;-63
2023/04/08 04:58:15;;;;;;;70.32;37.25;;;;;;;9.65;79.91;102251.75;5071330;28;20028;-61
2023/04/08 05:00:40;;;;;;;72.90;35.38;;;;;;;9.65;79.60;102260.06;5064841;28;20044;-61
2023/04/08 05:03:05;;;;;;;57.92;32.72;;;;;;;9.64;79.36;102255.59;5074501;28;20536;-62
2023/04/08 05:05:30;;;;;;;58.53;32.75;;;;;;;9.63;79.55;102255.78;5076457;28;20081;-63
2023/04/08 05:07:56;;;;;;;53.38;33.75;;;;;;;9.63;79.12;102259.44;5083140;28;20024;-62
2023/04/08 05:10:21;;;;;;;53.85;31.48;;;;;;;9.63;78.91;102261.31;5091668;28;20047;-61
2023/04/08 05:12:46;;;;;;;49.78;30.15;;;;;;;9.65;79.29;102264.75;5076309;28;20043;-62
2023/04/08 05:15:12;;;;;;;51.78;31.23;;;;;;;9.62;79.18;102262.41;5078523;28;20038;-64
2023/04/08 05:17:37;;;;;;;48.45;29.50;;;;;;;9.65;78.83;102270.31;5078564;28;20076;-61
2023/04/08 05:20:04;;;;;;;49.60;30.42;;;;;;;9.65;78.88;102270.31;5084243;28;20036;-62
2023/04/08 05:22:29;;;;;;;51.10;30.33;;;;;;;9.66;79.14;102270.06;5073979;28;20441;-62
2023/04/08 05:24:54;;;;;;;51.42;31.23;;;;;;;9.62;78.99;102270.72;5076254;28;20028;-62
2023/04/08 05:27:20;;;;;;;50.92;29.00;;;;;;;9.66;78.59;102277.53;5073607;28;20484;-62
2023/04/08 05:29:46;;;;;;;41.30;26.67;;;;;;;9.65;78.05;102281.38;5083572;28;20352;-62
2023/04/08 05:32:12;;;;;;;39.97;25.27;;;;;;;9.63;78.03;102277.97;5073082;28;20043;-62
2023/04/08 05:34:37;;;;;;;36.25;25.65;;;;;;;9.67;77.80;102271.81;5072853;28;20052;-62
2023/04/08 05:37:02;;;;;;;46.90;28.38;;;;;;;9.67;77.79;102276.47;5072469;28;20108;-61
2023/04/08 05:39:27;;;;;;;55.65;29.15;;;;;;;9.65;78.32;102276.69;5071328;28;20038;-61
2023/04/08 05:41:53;;;;;;;50.55;30.00;;;;;;;9.68;78.25;102283.75;5086455;28;20379;-62
2023/04/08 05:44:19;;;;;;;46.58;28.95;;;;;;;9.66;78.47;102283.94;5092433;28;20110;-62
2023/04/08 05:46:44;;;;;;;46.60;28.85;;;;;;;9.65;78.69;102275.84;5092349;28;20036;-62
2023/04/08 05:49:09;;;;;;;56.30;30.42;;;;;;;9.66;78.94;102283.94;5089206;28;20028;-62
2023/04/08 05:51:34;;;;;;;49.08;30.08;;;;;;;9.68;78.83;102292.91;5088656;28;20103;-62
2023/04/08 05:54:00;;;;;;;48.13;29.25;;;;;;;9.68;79.05;102298.47;5091580;28;20093;-62
2023/04/08 05:56:25;;;;;;;51.60;30.02;;;;;;;9.68;78.51;102292.06;5079890;28;20029;-62
2023/04/08 05:58:50;;;;;;;50.63;29.95;;;;;;;9.71;79.01;102297.19;5073564;28;20066;-62
2023/04/08 06:01:16;;;;;;;51.60;30.35;;;;;;;9.69;78.56;102300.16;5087663;28;20059;-61
2023/04/08 06:03:41;;;;;;;46.80;30.42;;;;;;;9.69;78.42;102299.31;5089965;28;20028;-63
2023/04/08 06:06:12;;;;;;;48.28;29.75;;;;;;;9.66;78.26;102310.81;5093324;28;20016;-62
2023/04/08 06:08:38;;;;;;;43.50;31.27;;;;;;;9.63;78.17;102302.91;5092857;28;20093;-62
2023/04/08 06:11:04;;;;;;;44.28;30.10;;;;;;;9.66;78.47;102306.13;5090894;28;20505;-62
2023/04/08 06:13:30;;;;;;;51.17;32.92;;;;;;;9.65;78.36;102304.41;5071106;28;20028;-62
2023/04/08 06:15:55;;;;;;;43.72;30.40;;;;;;;9.67;78.28;102310.63;5078992;28;20069;-62
2023/04/08 06:18:20;;;;;;;49.38;32.72;;;;;;;9.66;78.29;102310.81;5074653;28;20029;-62
2023/04/08 06:20:46;;;;;;;54.95;33.45;;;;;;;9.69;78.70;102313.16;5084838;28;20028;-62
2023/04/08 06:23:12;;;;;;;46.97;31.30;;;;;;;9.67;77.93;102318.94;5092478;28;20097;-62
2023/04/08 06:25:37;;;;;;;47.88;31.27;;;;;;;9.65;78.12;102318.28;5091022;28;20024;-62
2023/04/08 06:28:03;;;;;;;43.60;29.90;;;;;;;9.66;78.05;102324.66;5092770;28;20028;-62
2023/04/08 06:30:28;;;;;;;43.53;29.55;;;;;;;9.68;77.73;102325.31;5092314;28;20032;-63
2023/04/08 06:32:53;;;;;;;43.42;30.17;;;;;;;9.68;78.34;102326.19;5069930;28;20059;-62
2023/04/08 06:35:19;;;;;;;43.00;29.30;;;;;;;9.66;78.00;102331.06;5072635;28;20017;-62
2023/04/08 06:37:44;;;;;;;40.65;28.88;;;;;;;9.68;78.03;102336.41;5079727;28;20560;-62
2023/04/08 06:40:10;;;;;;;38.03;27.17;;;;;;;9.72;77.95;102340.47;5090860;28;20032;-62
2023/04/08 06:42:37;;;;;;;39.67;28.10;;;;;;;9.71;77.44;102347.09;5092303;28;20019;-62
2023/04/08 06:45:03;;;;;;;40.72;28.45;;;;;;;9.71;77.36;102342.41;5092290;28;20020;-62
2023/04/08 06:47:28;;;;;;;43.33;29.98;;;;;;;9.75;77.87;102340.06;5072547;28;20060;-63
2023/04/08 06:49:53;;;;;;;41.55;29.15;;;;;;;9.78;77.32;102346.00;5072306;28;20075;-62
2023/04/08 06:52:19;;;;;;;42.85;29.08;;;;;;;9.79;77.37;102344.97;5081701;28;20035;-62
2023/04/08 06:54:45;;;;;;;39.40;27.80;;;;;;;9.82;77.34;102352.00;5071456;28;20032;-62
2023/04/08 06:57:10;;;;;;;36.78;24.73;;;;;;;9.84;76.36;102355.41;5071557;28;20103;-62
2023/04/08 06:59:35;;;;;;;34.75;23.75;;;;;;;9.84;76.05;102347.09;5072211;28;20033;-62
2023/04/08 07:02:01;;;;;;;32.83;22.95;;;;;;;9.83;75.90;102353.72;5068525;28;20103;-62
2023/04/08 07:04:26;;;;;;;34.08;23.08;;;;;;;9.84;75.74;102359.03;5080258;28;20117;-62
2023/04/08 07:06:51;;;;;;;34.85;22.88;;;;;;;9.87;75.70;102368.03;5088163;28;20020;-62
2023/04/08 07:09:17;;;;;;;29.13;21.98;;;;;;;9.85;74.84;102365.44;5071680;28;20078;-63
2023/04/08 07:11:42;;;;;;;29.92;22.42;;;;;;;9.87;74.88;102374.41;5060229;28;20083;-62
2023/04/08 07:14:08;;;;;;;30.50;23.50;;;;;;;9.85;74.90;102365.44;5051545;28;20037;-63
2023/04/08 07:16:33;;;;;;;31.63;23.77;;;;;;;9.86;74.96;102366.28;5059405;28;20487;-61
2023/04/08 07:18:58;;;;;;;30.23;23.63;;;;;;;9.86;75.04;102369.91;5064642;28;20033;-61
2023/04/08 07:21:24;;;;;;;33.33;24.08;;;;;;;9.86;74.93;102381.00;5057288;28;20028;-61
2023/04/08 07:23:49;;;;;;;32.40;23.48;;;;;;;9.84;74.59;102375.69;5059721;28;20064;-62
2023/04/08 07:26:15;;;;;;;30.70;22.92;;;;;;;9.86;74.94;102391.25;5053769;28;20376;-62
2023/04/08 07:28:40;;;;;;;30.90;21.42;;;;;;;9.87;74.90;102385.50;5052106;28;20021;-62
2023/04/08 07:31:16;;;;;;;32.58;23.75;;;;;;;9.85;74.60;102387.63;5050681;28;20460;-62
2023/04/08 07:33:42;;;;;;;29.92;21.92;;;;;;;9.86;74.74;102397.66;5056044;28;20041;-62
2023/04/08 07:36:09;;;;;;;32.00;22.98;;;;;;;9.85;74.73;102393.16;5049790;28;20128;-62
2023/04/08 07:38:35;;;;;;;29.35;22.30;;;;;;;9.83;74.52;102398.94;5050762;28;20021;-62
2023/04/08 07:41:00;;;;;;;31.77;22.17;;;;;;;9.84;74.36;102397.88;5050441;28;20541;-61
2023/04/08 07:43:26;;;;;;;30.30;23.30;;;;;;;9.87;74.64;102396.59;5060945;28;20479;-62
2023/04/08 07:45:51;;;;;;;33.33;22.95;;;;;;;9.87;74.97;102402.16;5069562;28;20025;-62
2023/04/08 07:48:16;;;;;;;31.88;24.02;;;;;;;9.91;74.53;102402.59;5053350;28;20041;-62
2023/04/08 07:50:42;;;;;;;30.08;23.23;;;;;;;9.93;74.48;102400.44;5046194;28;20071;-62
2023/04/08 07:53:07;;;;;;;30.77;23.13;;;;;;;9.95;74.48;102403.88;5060370;28;20127;-62
2023/04/08 07:55:35;;;;;;;29.20;22.77;;;;;;;9.93;74.53;102401.28;5059748;28;20028;-63
2023/04/08 07:58:01;;;;;;;31.73;23.65;;;;;;;9.94;74.54;102405.78;5048683;28;20040;-63
2023/04/08 08:00:29;;;;;;;30.80;23.10;;;;;;;9.93;74.41;102411.53;5054041;28;20033;-63
2023/04/08 08:02:54;;;;;;;31.70;24.58;;;;;;;9.91;74.99;102408.97;5067110;28;20036;-62
2023/04/08 08:05:20;;;;;;;31.27;24.05;;;;;;;9.92;75.05;102413.47;5050348;28;20035;-59
2023/04/08 08:07:45;;;;;;;29.73;22.58;;;;;;;9.92;74.74;102416.22;5055879;28;20090;-62
2023/04/08 08:10:10;;;;;;;31.75;24.25;;;;;;;9.96;75.36;102416.66;5069815;28;20032;-62
2023/04/08 08:12:36;;;;;;;30.73;23.38;;;;;;;9.94;74.76;102425.22;5086553;28;20040;-62
2023/04/08 08:15:02;;;;;;;31.73;23.27;;;;;;;9.94;74.81;102428.00;5090630;28;20048;-63
2023/04/08 08:17:29;;;;;;;32.65;23.15;;;;;;;9.97;74.69;102426.69;5089666;28;20161;-63
2023/04/08 08:19:55;;;;;;;30.10;22.83;;;;;;;9.99;74.40;102425.41;5076565;28;20031;-61
2023/04/08 08:22:21;;;;;;;28.02;22.00;;;;;;;10.00;74.54;102435.44;5076744;28;20406;-61
2023/04/08 08:24:46;;;;;;;29.55;21.45;;;;;;;10.00;73.96;102424.34;5089103;28;20522;-61
2023/04/08 08:27:12;;;;;;;30.40;23.60;;;;;;;9.98;73.48;102442.25;5087962;28;20032;-61
2023/04/08 08:29:37;;;;;;;30.73;22.88;;;;;;;9.98;74.23;102437.59;5069335;28;20039;-61
2023/04/08 08:32:03;;;;;;;34.10;24.80;;;;;;;9.96;73.98;102436.94;5069284;28;20017;-61
2023/04/08 08:34:28;;;;;;;30.65;23.35;;;;;;;9.98;74.01;102436.72;5069277;28;20491;-61
2023/04/08 08:36:54;;;;;;;33.50;24.73;;;;;;;9.99;74.40;102444.84;5068961;28;20036;-61
2023/04/08 08:39:20;;;;;;;36.95;26.50;;;;;;;9.98;74.39;102442.25;5081900;28;20028;-61
2023/04/08 08:41:45;;;;;;;36.00;25.35;;;;;;;10.01;74.30;102441.84;5088379;28;20475;-61
2023/04/08 08:44:11;;;;;;;37.33;26.67;;;;;;;9.99;74.21;102455.94;5069360;28;20048;-61
2023/04/08 08:46:43;;;;;;;38.75;27.52;;;;;;;9.99;74.62;102455.94;5068765;28;20028;-61
2023/04/08 08:49:08;;;;;;;42.00;28.92;;;;;;;10.00;74.20;102441.00;5069559;28;20028;-61
2023/04/08 08:51:34;;;;;;;38.40;26.90;;;;;;;10.01;74.65;102447.41;5069340;28;20482;-61
2023/04/08 08:54:03;;;;;;;37.85;27.83;;;;;;;10.02;74.62;102455.53;5068346;28;20520;-61
2023/04/08 08:56:29;;;;;;;40.50;28.42;;;;;;;10.05;74.83;102449.53;5068724;28;20028;-61
2023/04/08 08:58:54;;;;;;;36.75;27.35;;;;;;;10.06;74.72;102450.38;5076522;28;20210;-61
2023/04/08 09:01:33;;;;;;;36.45;25.98;;;;;;;10.12;74.70;102459.81;5068853;28;20020;-62
2023/04/08 09:04:15;;;;;;;36.50;26.58;;;;;;;10.11;74.40;102455.31;5085541;28;20032;-60
2023/04/08 09:06:40;;;;;;;34.13;26.02;;;;;;;10.12;74.40;102459.81;5073080;28;20043;-60
2023/04/08 09:09:09;;;;;;;41.13;26.42;;;;;;;10.12;74.65;102457.03;5075599;28;20589;-58
2023/04/08 09:11:36;;;;;;;38.00;27.83;;;;;;;10.16;74.30;102461.09;5060414;28;20044;-63
2023/04/08 09:14:01;;;;;;;38.20;28.27;;;;;;;10.18;74.37;102467.25;5053873;28;20032;-62
2023/04/08 09:16:27;;;;;;;39.17;28.70;;;;;;;10.19;73.78;102472.63;5050318;28;20033;-64
2023/04/08 09:18:53;;;;;;;41.28;28.83;;;;;;;10.14;74.48;102474.28;5054766;28;20033;-64
2023/04/08 09:21:22;;;;;;;37.25;27.33;;;;;;;10.17;74.19;102474.72;5067946;28;20462;-62
2023/04/08 09:23:49;;;;;;;40.00;28.95;;;;;;;10.16;74.21;102484.13;5050708;28;20040;-62
2023/04/08 09:26:16;;;;;;;39.30;28.88;;;;;;;10.18;74.28;102489.47;5050719;28;20020;-64
2023/04/08 09:28:43;;;;;;;40.55;29.27;;;;;;;10.16;74.45;102489.69;5053624;28;20124;-64
2023/04/08 09:31:23;;;;;;;39.35;28.88;;;;;;;10.17;74.12;102488.59;5054033;28;20037;-64
2023/04/08 09:33:51;;;;;;;38.08;27.95;;;;;;;10.17;73.94;102491.38;5055367;28;20032;-62
2023/04/08 09:36:21;;;;;;;38.58;28.15;;;;;;;10.13;74.37;102492.03;5062304;28;20458;-62
2023/04/08 09:38:46;;;;;;;37.78;28.60;;;;;;;10.14;74.37;102479.84;5068185;28;20103;-63
2023/04/08 09:41:14;;;;;;;37.15;27.85;;;;;;;10.11;74.61;102486.69;5064984;28;20551;-62
2023/04/08 09:43:50;;;;;;;36.42;27.63;;;;;;;10.12;74.91;102484.78;5065411;28;20056;-62
2023/04/08 09:46:17;;;;;;;36.97;27.67;;;;;;;10.13;75.13;102494.78;5052842;28;20031;-62
2023/04/08 09:49:04;;;;;;;34.47;26.73;;;;;;;10.17;74.73;102487.75;5047563;28;20060;-59
2023/04/08 09:51:35;;;;;;;32.97;26.08;;;;;;;10.17;74.28;102490.53;5063992;28;20074;-62
2023/04/08 09:54:05;;;;;;;34.58;25.45;;;;;;;10.19;74.15;102493.97;5064697;28;20040;-61
2023/04/08 09:56:40;;;;;;;32.97;26.00;;;;;;;10.23;74.76;102498.88;5057204;28;20035;-61
2023/04/08 09:59:13;;;;;;;34.47;27.15;;;;;;;10.23;74.58;102496.09;5057912;28;20025;-61
2023/04/08 10:01:46;;;;;;;35.47;26.30;;;;;;;10.22;74.37;102499.09;5059367;28;20028;-61
2023/04/08 10:04:19;;;;;;;30.20;24.30;;;;;;;10.24;74.34;102497.81;5050128;28;20429;-61
2023/04/08 10:06:52;;;;;;;21.92;14.50;;;;;;;10.59;74.55;102496.81;5057659;28;20475;-61
2023/04/08 10:09:18;;;;;;;31.10;23.73;;;;;;;10.60;73.43;102493.81;5070038;28;20064;-61
2023/04/08 10:11:44;;;;;;;29.27;24.48;;;;;;;10.57;72.83;102497.91;5068205;28;20560;-61
2023/04/08 10:14:10;;;;;;;30.77;25.45;;;;;;;10.54;72.90;102501.09;5076833;28;20032;-61
2023/04/08 10:16:35;;;;;;;29.67;24.52;;;;;;;10.48;73.23;102499.16;5074450;28;20021;-66
2023/04/08 10:19:00;;;;;;;30.05;25.63;;;;;;;10.50;72.72;102498.94;5084712;28;20059;-64
2023/04/08 10:21:32;;;;;;;28.20;24.83;;;;;;;10.47;72.94;102505.78;5079893;28;20029;-62
2023/04/08 10:23:59;;;;;;;28.52;24.02;;;;;;;10.49;73.05;102497.22;5075337;28;20066;-64
2023/04/08 10:26:42;;;;;;;28.52;24.55;;;;;;;10.49;72.85;102506.44;5075091;28;20025;-64
2023/04/08 10:29:16;;;;;;;26.33;22.05;;;;;;;10.56;73.14;102496.16;5074351;28;20059;-64
2023/04/08 10:31:42;;;;;;;28.60;24.25;;;;;;;10.55;73.18;102494.47;5070511;28;20476;-63
2023/04/08 10:34:18;;;;;;;28.42;24.83;;;;;;;10.59;72.49;102486.56;5071787;28;20815;-64
2023/04/08 10:36:47;;;;;;;27.80;24.60;;;;;;;10.62;72.49;102488.91;5071400;28;20032;-65
2023/04/08 10:39:14;;;;;;;29.83;25.17;;;;;;;10.65;73.01;102493.16;5070091;28;20033;-65
2023/04/08 10:41:42;;;;;;;30.17;25.65;;;;;;;10.65;72.81;102493.16;5071653;28;20483;-65
2023/04/08 10:44:21;;;;;;;27.80;23.80;;;;;;;10.73;73.07;102490.19;5073975;28;20024;-63
2023/04/08 10:46:48;;;;;;;28.70;25.10;;;;;;;10.72;72.79;102488.47;5089792;28;20024;-63
2023/04/08 10:49:15;;;;;;;28.70;25.52;;;;;;;10.78;72.66;102490.41;5091500;28;20024;-63
2023/04/08 10:51:42;;;;;;;30.83;27.05;;;;;;;10.83;72.78;102487.84;5090425;28;20048;-61
2023/04/08 10:54:10;;;;;;;28.88;25.70;;;;;;;10.90;72.65;102491.47;5081893;28;20056;-62
2023/04/08 10:56:42;;;;;;;29.52;26.33;;;;;;;11.02;72.50;102478.63;5079906;28;20107;-62
2023/04/08 10:59:07;;;;;;;28.92;25.45;;;;;;;11.07;71.76;102475.19;5075040;28;20040;-63
2023/04/08 11:01:40;;;;;;;30.23;26.80;;;;;;;11.16;71.91;102475.78;5072816;28;20024;-62
2023/04/08 11:04:12;;;;;;;30.25;26.42;;;;;;;11.17;70.82;102474.75;5069598;28;20089;-60
2023/04/08 11:06:37;;;;;;;29.92;25.92;;;;;;;11.17;71.18;102471.97;5075104;28;20491;-58
2023/04/08 11:09:03;;;;;;;28.95;25.05;;;;;;;11.18;71.41;102482.84;5079863;28;20080;-63
2023/04/08 11:11:30;;;;;;;29.63;26.02;;;;;;;11.17;71.18;102467.25;5079334;28;20059;-62
2023/04/08 11:13:56;;;;;;;30.70;26.13;;;;;;;11.21;71.34;102468.53;5080273;28;20032;-61